Time;durP1;ratioP1;P1;durP2;ratioP2;P2;SDS_P1;SDS_P2;PMS_P1;PMS_P2;Temp;Humidity;BMP_temperature;BMP_pressure;BME280_temperature;BME280_humidity;BME280_pressure;Samples;Min_cycle;Max_cycle;Signal;HPM_P1;HPM_P2
2022/06/24 00:02:03;;;;;;;12.27;10.05;;;;;;;21.76;83.94;100732.53;4913943;28;20046;-74
2022/06/24 00:04:30;;;;;;;15.63;9.98;;;;;;;21.72;84.77;100727.59;4914911;28;20050;-74
2022/06/24 00:06:56;;;;;;;11.48;9.48;;;;;;;21.66;84.35;100721.75;4928310;28;20489;-74
2022/06/24 00:09:27;;;;;;;13.75;9.18;;;;;;;21.63;84.93;100715.81;4928965;28;20067;-74
2022/06/24 00:12:07;;;;;;;11.98;9.40;;;;;;;21.58;86.53;100709.00;4919399;28;20039;-74
2022/06/24 00:14:34;;;;;;;11.57;9.13;;;;;;;21.56;85.41;100705.63;4928923;28;20044;-73
2022/06/24 00:17:14;;;;;;;10.50;8.75;;;;;;;21.52;86.05;100698.81;4928111;28;20099;-73
2022/06/24 00:19:53;;;;;;;14.90;9.68;;;;;;;21.47;86.91;100702.97;4932048;28;20045;-74
2022/06/24 00:22:19;;;;;;;12.93;8.88;;;;;;;21.44;86.54;100701.41;4935111;28;20051;-72
2022/06/24 00:24:44;;;;;;;12.88;9.30;;;;;;;21.41;86.28;100702.53;4933900;28;20215;-73
2022/06/24 00:27:22;;;;;;;12.02;8.90;;;;;;;21.38;87.55;100694.75;4942562;28;20046;-73
2022/06/24 00:29:49;;;;;;;11.23;8.75;;;;;;;21.37;87.11;100693.06;4929365;28;20443;-74
2022/06/24 00:32:15;;;;;;;11.68;9.30;;;;;;;21.33;87.24;100682.69;4936612;28;20035;-73
2022/06/24 00:34:41;;;;;;;12.65;8.60;;;;;;;21.27;87.54;100682.31;4932217;28;20039;-74
2022/06/24 00:37:27;;;;;;;12.05;9.10;;;;;;;21.24;89.08;100679.88;4934561;28;20140;-72
2022/06/24 00:39:58;;;;;;;11.35;8.60;;;;;;;21.21;87.63;100673.94;4935164;28;20046;-74
2022/06/24 00:42:24;;;;;;;11.13;7.82;;;;;;;21.17;87.83;100676.06;4945850;28;20030;-72
2022/06/24 00:45:15;;;;;;;13.60;8.35;;;;;;;21.17;89.26;100670.69;4940148;28;20076;-73
2022/06/24 00:47:42;;;;;;;10.35;8.13;;;;;;;21.14;88.22;100668.31;4948062;28;20039;-73
2022/06/24 00:50:24;;;;;;;12.63;8.18;;;;;;;21.11;89.73;100650.59;4947978;28;20043;-73
2022/06/24 00:52:53;;;;;;;9.20;7.90;;;;;;;21.08;88.55;100653.56;4915958;28;20043;-73
2022/06/24 00:55:29;;;;;;;14.32;9.48;;;;;;;21.02;88.76;100644.22;4939258;28;20038;-73
2022/06/24 00:57:56;;;;;;;13.80;8.70;;;;;;;20.95;88.69;100643.09;4933168;28;20097;-73
2022/06/24 01:00:24;;;;;;;12.20;8.80;;;;;;;20.88;88.81;100636.59;4921070;28;20082;-73
2022/06/24 01:02:59;;;;;;;12.40;8.85;;;;;;;20.81;91.22;100635.44;4916706;28;20957;-73
2022/06/24 01:05:26;;;;;;;15.38;8.68;;;;;;;20.75;89.84;100637.69;4935841;28;20067;-73
2022/06/24 01:07:51;;;;;;;12.70;8.95;;;;;;;20.70;90.59;100642.63;4908328;28;20066;-73
2022/06/24 01:10:17;;;;;;;11.77;9.25;;;;;;;20.67;91.09;100640.25;4917799;28;20146;-73
2022/06/24 01:12:42;;;;;;;11.60;9.38;;;;;;;20.66;91.85;100641.25;4914269;28;20045;-73
2022/06/24 01:15:08;;;;;;;14.57;10.60;;;;;;;20.65;92.32;100642.25;4924944;28;20153;-73
2022/06/24 01:17:34;;;;;;;13.55;9.75;;;;;;;20.62;92.22;100639.81;4935302;28;20497;-73
2022/06/24 01:20:00;;;;;;;11.40;9.65;;;;;;;20.61;92.10;100638.13;4936245;28;20043;-73
2022/06/24 01:22:26;;;;;;;12.35;9.27;;;;;;;20.59;92.55;100632.88;4920683;28;20434;-73
2022/06/24 01:24:53;;;;;;;12.98;9.63;;;;;;;20.57;91.90;100628.63;4915338;28;20496;-73
2022/06/24 01:27:19;;;;;;;11.02;9.25;;;;;;;20.53;92.53;100619.16;4920092;28;20034;-73
2022/06/24 01:29:45;;;;;;;13.15;9.45;;;;;;;20.52;92.86;100625.53;4899263;28;20047;-73
2022/06/24 01:32:11;;;;;;;13.73;10.25;;;;;;;20.49;92.73;100619.41;4916109;28;20181;-73
2022/06/24 01:34:37;;;;;;;11.45;9.55;;;;;;;20.47;93.11;100610.66;4930241;28;20474;-73
2022/06/24 01:37:03;;;;;;;13.02;9.93;;;;;;;20.45;92.63;100609.97;4933168;28;20090;-73
2022/06/24 01:39:29;;;;;;;12.10;9.55;;;;;;;20.42;92.94;100612.91;4908920;28;20039;-72
2022/06/24 01:41:55;;;;;;;13.85;9.85;;;;;;;20.42;93.44;100620.97;4894529;28;20050;-72
2022/06/24 01:44:21;;;;;;;14.18;9.52;;;;;;;20.42;93.69;100614.75;4911551;28;20039;-72
2022/06/24 01:46:47;;;;;;;16.88;10.18;;;;;;;20.43;94.14;100617.28;4932696;28;20035;-72
2022/06/24 01:49:13;;;;;;;11.85;9.70;;;;;;;20.44;94.69;100623.53;4910532;28;20070;-73
2022/06/24 01:51:41;;;;;;;12.73;9.48;;;;;;;20.47;95.35;100634.00;4910473;28;20143;-72
2022/06/24 01:54:07;;;;;;;13.70;10.02;;;;;;;20.48;95.41;100624.94;4892797;28;20034;-72
2022/06/24 01:56:32;;;;;;;10.98;9.18;;;;;;;20.48;95.53;100623.09;4933061;28;20042;-73
2022/06/24 01:58:57;;;;;;;15.32;9.35;;;;;;;20.49;94.86;100616.72;4937269;28;20506;-73
2022/06/24 02:01:23;;;;;;;11.48;8.43;;;;;;;20.51;94.36;100613.03;4948634;28;20165;-72
2022/06/24 02:03:49;;;;;;;12.10;9.15;;;;;;;20.51;94.09;100602.28;4946197;28;20046;-72
2022/06/24 02:06:15;;;;;;;12.13;8.70;;;;;;;20.51;94.34;100592.41;4951143;28;20031;-72
2022/06/24 02:08:41;;;;;;;13.23;8.70;;;;;;;20.52;94.58;100593.25;4953193;28;20031;-72
2022/06/24 02:13:51;;;;;;;11.10;8.55;;;;;;;20.53;95.73;100589.59;4929102;28;20068;-73
2022/06/24 02:16:21;;;;;;;11.60;8.68;;;;;;;20.52;95.45;100587.88;4949678;28;20114;-72
2022/06/24 02:18:47;;;;;;;10.30;8.20;;;;;;;20.53;95.30;100584.19;4936152;28;20085;-72
2022/06/24 02:21:13;;;;;;;12.60;8.95;;;;;;;20.51;94.98;100587.03;4936306;28;20034;-73
2022/06/24 02:23:39;;;;;;;11.77;9.27;;;;;;;20.50;95.05;100585.34;4934229;28;20062;-73
2022/06/24 02:26:05;;;;;;;14.43;9.05;;;;;;;20.48;95.39;100581.91;4927854;28;20122;-73
2022/06/24 02:28:30;;;;;;;13.32;9.60;;;;;;;20.47;95.75;100577.53;4932993;28;20031;-74
2022/06/24 02:30:59;;;;;;;14.70;9.35;;;;;;;20.46;96.06;100584.75;4949641;28;20035;-73
2022/06/24 02:33:25;;;;;;;12.93;9.02;;;;;;;20.43;95.61;100576.13;4945861;28;20042;-73
2022/06/24 02:35:51;;;;;;;10.88;8.90;;;;;;;20.40;95.87;100562.97;4948663;28;20062;-72
2022/06/24 02:38:17;;;;;;;15.23;9.38;;;;;;;20.39;96.00;100561.25;4951986;28;20523;-73
2022/06/24 02:40:45;;;;;;;11.07;8.57;;;;;;;20.36;96.50;100548.94;4936777;28;20046;-73
2022/06/24 02:43:25;;;;;;;13.55;8.50;;;;;;;20.34;96.61;100545.56;4912061;28;20997;-73
2022/06/24 02:46:08;;;;;;;11.60;9.18;;;;;;;20.32;97.66;100534.13;4929415;28;20072;-73
2022/06/24 02:48:35;;;;;;;12.43;8.80;;;;;;;20.32;97.21;100528.75;4941436;28;20175;-73
2022/06/24 02:51:03;;;;;;;14.98;9.35;;;;;;;20.28;96.92;100516.56;4947579;28;20031;-73
2022/06/24 02:53:29;;;;;;;12.23;9.25;;;;;;;20.27;97.34;100520.25;4950017;28;20031;-73
2022/06/24 02:55:57;;;;;;;13.25;9.80;;;;;;;20.26;97.56;100513.19;4947375;28;20066;-73
2022/06/24 02:58:23;;;;;;;12.32;9.10;;;;;;;20.21;97.26;100516.28;4951329;28;20035;-73
2022/06/24 03:00:49;;;;;;;13.82;9.50;;;;;;;20.18;97.46;100520.09;4943123;28;20069;-73
2022/06/24 03:03:16;;;;;;;13.50;9.32;;;;;;;20.16;97.62;100510.47;4920995;28;20522;-74
2022/06/24 03:05:43;;;;;;;15.55;9.55;;;;;;;20.14;97.67;100510.63;4948478;28;20077;-73
2022/06/24 03:08:10;;;;;;;12.32;9.10;;;;;;;20.13;97.98;100506.25;4924488;28;20055;-73
2022/06/24 03:10:36;;;;;;;17.00;9.90;;;;;;;20.11;97.70;100502.00;4946737;28;20099;-74
2022/06/24 03:13:02;;;;;;;13.63;9.23;;;;;;;20.11;98.21;100508.22;4948932;28;20082;-73
2022/06/24 03:15:28;;;;;;;13.50;8.50;;;;;;;20.11;98.28;100510.06;4923846;28;20235;-74
2022/06/24 03:17:53;;;;;;;12.77;9.45;;;;;;;20.10;98.88;100522.63;4916705;28;20027;-73
2022/06/24 03:20:19;;;;;;;19.15;10.25;;;;;;;20.12;99.98;100535.94;4934943;28;20049;-73
2022/06/24 03:22:45;;;;;;;12.80;9.60;;;;;;;20.12;100.00;100565.47;4949848;28;20070;-74
2022/06/24 03:25:10;;;;;;;13.32;10.13;;;;;;;20.08;100.00;100562.22;4934395;28;20050;-73
2022/06/24 03:27:37;;;;;;;12.68;9.00;;;;;;;20.06;100.00;100572.28;4950736;28;20031;-73
2022/06/24 03:30:04;;;;;;;11.18;8.27;;;;;;;20.10;100.00;100578.22;4934464;28;20050;-73
2022/06/24 03:32:30;;;;;;;12.45;8.70;;;;;;;20.16;100.00;100581.19;4934333;28;20046;-73
2022/06/24 03:34:56;;;;;;;13.35;8.63;;;;;;;20.24;100.00;100575.13;4938844;28;20033;-73
2022/06/24 03:37:21;;;;;;;11.65;8.27;;;;;;;20.29;100.00;100562.13;4949859;28;20035;-73
2022/06/24 03:39:47;;;;;;;10.93;8.57;;;;;;;20.34;99.30;100553.63;4932809;28;20969;-74
2022/06/24 03:42:12;;;;;;;12.50;8.63;;;;;;;20.36;99.37;100551.63;4933093;28;20036;-73
2022/06/24 03:44:38;;;;;;;12.65;9.10;;;;;;;20.39;99.68;100562.13;4934629;28;20155;-73
2022/06/24 03:47:04;;;;;;;11.50;8.98;;;;;;;20.40;100.00;100557.59;4950803;28;20481;-73
2022/06/24 03:49:29;;;;;;;15.20;11.05;;;;;;;20.42;99.66;100564.50;4951476;28;20039;-73
2022/06/24 03:51:55;;;;;;;14.27;10.57;;;;;;;20.43;100.00;100568.91;4932859;28;20101;-73
2022/06/24 03:54:21;;;;;;;13.50;11.13;;;;;;;20.42;100.00;100575.28;4945477;28;20039;-73
2022/06/24 03:56:47;;;;;;;14.82;9.88;;;;;;;20.39;100.00;100582.75;4929108;28;20050;-73
2022/06/24 03:59:13;;;;;;;11.80;8.68;;;;;;;20.35;100.00;100571.44;4934392;28;20059;-72
2022/06/24 04:01:39;;;;;;;10.75;7.78;;;;;;;20.30;100.00;100568.31;4934062;28;20594;-73
2022/06/24 04:04:05;;;;;;;10.93;7.40;;;;;;;20.24;100.00;100553.63;4954954;28;20138;-73
2022/06/24 04:06:30;;;;;;;8.77;6.85;;;;;;;20.18;100.00;100555.03;4934241;28;20030;-73
2022/06/24 04:08:57;;;;;;;12.00;7.80;;;;;;;20.13;100.00;100561.81;4956384;28;22183;-74
2022/06/24 04:11:23;;;;;;;10.10;6.78;;;;;;;20.05;100.00;100566.03;4937653;28;20039;-74
2022/06/24 04:13:48;;;;;;;8.45;6.00;;;;;;;19.94;100.00;100548.16;4955387;28;20965;-73
2022/06/24 04:16:14;;;;;;;8.30;5.85;;;;;;;19.79;100.00;100523.53;4949617;28;20044;-73
2022/06/24 04:18:40;;;;;;;12.25;6.93;;;;;;;19.68;100.00;100516.44;4949142;28;20046;-74
2022/06/24 04:21:16;;;;;;;8.50;5.63;;;;;;;19.56;100.00;100538.19;4953556;28;20058;-72
2022/06/24 04:23:42;;;;;;;9.45;5.25;;;;;;;19.43;100.00;100549.16;4953409;28;21719;-72
2022/06/24 04:26:08;;;;;;;5.70;3.63;;;;;;;19.27;100.00;100551.34;4937766;28;20049;-73
2022/06/24 04:28:34;;;;;;;5.05;3.25;;;;;;;19.11;100.00;100556.31;4955477;28;20027;-73
2022/06/24 04:31:00;;;;;;;4.35;2.42;;;;;;;18.96;100.00;100542.41;4938889;28;20031;-74
2022/06/24 04:33:26;;;;;;;3.80;2.95;;;;;;;18.84;100.00;100534.41;4913088;28;20117;-72
2022/06/24 04:35:52;;;;;;;4.40;2.50;;;;;;;18.76;100.00;100519.97;4938182;28;20090;-73
2022/06/24 04:38:17;;;;;;;4.95;2.58;;;;;;;18.67;100.00;100522.44;4952033;28;20050;-73
2022/06/24 04:40:43;;;;;;;3.78;2.70;;;;;;;18.62;100.00;100535.38;4956935;28;20097;-73
2022/06/24 04:43:09;;;;;;;3.72;3.05;;;;;;;18.58;100.00;100558.09;4920315;28;20045;-73
2022/06/24 04:45:35;;;;;;;4.15;3.00;;;;;;;18.56;100.00;100562.72;4936702;28;20599;-73
2022/06/24 04:48:00;;;;;;;5.07;3.00;;;;;;;18.53;100.00;100542.38;4947940;28;20090;-73
2022/06/24 04:50:26;;;;;;;3.47;2.88;;;;;;;18.54;100.00;100528.00;4926159;28;20047;-74
2022/06/24 04:52:52;;;;;;;5.32;2.70;;;;;;;18.56;100.00;100519.81;4947102;28;20031;-72
2022/06/24 04:55:17;;;;;;;3.78;3.25;;;;;;;18.55;100.00;100502.91;4953368;28;20031;-75
2022/06/24 04:57:43;;;;;;;5.28;3.33;;;;;;;18.57;100.00;100502.75;4954126;28;20776;-73
2022/06/24 05:00:09;;;;;;;3.20;2.88;;;;;;;18.56;100.00;100515.31;4955542;28;20051;-75
2022/06/24 05:02:35;;;;;;;5.80;3.28;;;;;;;18.53;100.00;100504.84;4939502;28;20646;-73
2022/06/24 05:05:02;;;;;;;4.88;3.05;;;;;;;18.52;100.00;100529.13;4954382;28;20031;-74
2022/06/24 05:07:27;;;;;;;8.95;3.67;;;;;;;18.51;100.00;100559.59;4938512;28;20118;-75
2022/06/24 05:09:53;;;;;;;4.13;3.30;;;;;;;18.45;100.00;100537.66;4947040;28;20605;-76
2022/06/24 05:12:21;;;;;;;10.00;3.55;;;;;;;18.40;100.00;100521.13;4888531;28;20119;-79
2022/06/24 05:14:47;;;;;;;4.78;3.47;;;;;;;18.31;100.00;100528.09;4960051;28;20043;-78
2022/06/24 05:17:13;;;;;;;5.57;3.50;;;;;;;18.21;100.00;100508.44;4927066;28;20427;-78
2022/06/24 05:19:38;;;;;;;4.75;3.33;;;;;;;18.11;100.00;100496.75;4956419;28;20076;-82
2022/06/24 05:22:04;;;;;;;5.55;3.70;;;;;;;18.03;100.00;100490.19;4939279;28;21677;-82
2022/06/24 05:24:30;;;;;;;5.18;3.63;;;;;;;18.01;100.00;100510.03;4937006;28;20058;-84
2022/06/24 05:26:56;;;;;;;4.72;3.55;;;;;;;17.98;100.00;100497.75;4953061;28;21105;-83
2022/06/24 05:29:21;;;;;;;5.47;3.65;;;;;;;17.95;100.00;100489.97;4942540;28;20042;-84
2022/06/24 05:31:47;;;;;;;4.93;3.92;;;;;;;17.97;100.00;100471.94;4919340;28;20117;-78
2022/06/24 05:34:13;;;;;;;4.90;3.60;;;;;;;18.02;100.00;100471.56;4949375;28;20041;-77
2022/06/24 05:36:39;;;;;;;6.50;4.18;;;;;;;18.08;100.00;100468.41;4902941;28;20053;-77
2022/06/24 05:39:05;;;;;;;7.90;5.07;;;;;;;18.14;100.00;100473.25;4934220;28;20038;-81
2022/06/24 05:41:31;;;;;;;9.32;6.57;;;;;;;18.20;100.00;100471.91;4922438;28;20674;-79
2022/06/24 05:43:57;;;;;;;14.07;6.50;;;;;;;18.25;100.00;100471.50;4952057;28;20058;-77
2022/06/24 05:46:22;;;;;;;4.88;4.00;;;;;;;18.23;100.00;100465.41;4931644;28;20125;-76
2022/06/24 05:48:48;;;;;;;5.00;3.88;;;;;;;18.16;100.00;100455.25;4953732;28;20042;-77
2022/06/24 05:51:18;;;;;;;5.07;3.55;;;;;;;18.15;100.00;100469.59;4932173;28;20121;-78
2022/06/24 05:56:30;;;;;;;6.00;3.40;;;;;;;18.03;100.00;100474.09;4946387;28;20486;-77
2022/06/24 05:58:57;;;;;;;4.82;3.72;;;;;;;18.02;100.00;100479.59;4934104;28;20086;-76
2022/06/24 06:01:23;;;;;;;4.35;3.35;;;;;;;17.96;100.00;100474.72;4927984;28;20038;-76
2022/06/24 06:03:49;;;;;;;5.35;3.20;;;;;;;17.92;100.00;100479.50;4935998;28;20393;-76
2022/06/24 06:06:15;;;;;;;4.43;3.00;;;;;;;17.89;100.00;100480.63;4953241;28;20027;-79
2022/06/24 06:08:41;;;;;;;5.93;3.33;;;;;;;17.89;100.00;100511.91;4934801;28;20037;-78
2022/06/24 06:11:16;;;;;;;3.70;3.30;;;;;;;17.87;100.00;100521.88;4937207;28;20034;-78
2022/06/24 06:13:43;;;;;;;8.07;3.45;;;;;;;17.84;100.00;100525.66;4947544;28;20398;-77
2022/06/24 06:16:09;;;;;;;6.60;3.45;;;;;;;17.78;100.00;100524.31;4940640;28;20462;-77
2022/06/24 06:18:35;;;;;;;6.22;3.83;;;;;;;17.73;100.00;100507.81;4934099;28;21632;-77
2022/06/24 06:21:01;;;;;;;4.68;3.38;;;;;;;17.70;100.00;100524.09;4937897;28;20039;-77
2022/06/24 06:23:30;;;;;;;5.90;3.67;;;;;;;17.68;100.00;100525.19;4952953;28;20042;-78
2022/06/24 06:25:57;;;;;;;5.22;3.92;;;;;;;17.65;100.00;100520.94;4954067;28;20034;-78
2022/06/24 06:28:22;;;;;;;7.38;4.43;;;;;;;17.65;100.00;100516.44;4914005;28;20049;-78
2022/06/24 06:30:48;;;;;;;7.70;4.90;;;;;;;17.66;100.00;100517.31;4951432;28;20035;-77
2022/06/24 06:33:14;;;;;;;6.78;4.97;;;;;;;17.66;100.00;100511.94;4953595;28;20073;-78
2022/06/24 06:35:39;;;;;;;11.32;5.68;;;;;;;17.65;100.00;100507.53;4945910;28;20050;-75
2022/06/24 06:38:05;;;;;;;9.20;6.00;;;;;;;17.64;100.00;100516.56;4952732;28;20106;-75
2022/06/24 06:40:33;;;;;;;11.23;6.20;;;;;;;17.68;100.00;100520.69;4946567;28;20504;-76
2022/06/24 06:43:00;;;;;;;8.95;6.30;;;;;;;17.72;100.00;100524.84;4917846;28;20042;-75
2022/06/24 06:45:27;;;;;;;11.50;6.47;;;;;;;17.78;100.00;100535.03;4935465;28;20054;-76
2022/06/24 06:47:52;;;;;;;8.93;6.15;;;;;;;17.83;100.00;100541.84;4931936;28;20118;-76
2022/06/24 07:28:12;;;;;;;16.67;8.45;;;;;;;18.12;100.00;100576.13;4880472;26;20043;-77
2022/06/24 07:31:32;;;;;;;15.15;7.97;;;;;;;18.12;100.00;100573.44;4883811;29;20059;-77
2022/06/24 07:33:58;;;;;;;14.15;7.78;;;;;;;18.14;100.00;100571.53;4906428;29;20051;-77
2022/06/24 07:36:23;;;;;;;13.63;8.02;;;;;;;18.11;100.00;100563.72;4920792;29;20027;-78
2022/06/24 07:38:49;;;;;;;13.15;8.07;;;;;;;18.10;100.00;100564.72;4925980;29;20032;-77
2022/06/24 07:41:16;;;;;;;14.05;7.68;;;;;;;18.16;100.00;100566.88;4919969;29;20113;-76
2022/06/24 07:43:41;;;;;;;9.20;6.68;;;;;;;18.17;100.00;100563.22;4901483;29;20150;-76
2022/06/24 07:46:08;;;;;;;12.57;7.50;;;;;;;18.18;100.00;100556.88;4921644;29;20046;-77
2022/06/24 07:48:40;;;;;;;9.88;6.88;;;;;;;18.21;100.00;100562.00;4917512;29;20015;-76
2022/06/24 08:29:36;;;;;;;8.55;4.90;;;;;;;18.12;100.00;100577.00;4481185;29;20530;-80
2022/06/24 08:32:02;;;;;;;7.18;3.58;;;;;;;18.01;100.00;100580.53;4884821;29;20526;-82
2022/06/24 08:34:28;;;;;;;2.83;2.42;;;;;;;17.82;100.00;100575.78;4858179;29;20099;-83
2022/06/24 08:39:50;;;;;;;3.45;2.75;;;;;;;17.59;100.00;100564.28;4948566;23;20070;-82
2022/06/24 08:42:16;;;;;;;4.40;2.85;;;;;;;17.51;100.00;100573.78;4918324;28;20364;-82
2022/06/24 08:44:41;;;;;;;3.92;3.15;;;;;;;17.50;100.00;100572.03;4903901;29;20053;-82
2022/06/24 08:47:13;;;;;;;5.47;3.15;;;;;;;17.47;100.00;100571.44;4916913;29;20174;-82
2022/06/24 08:49:38;;;;;;;3.50;2.10;;;;;;;17.46;100.00;100575.94;4919399;28;20089;-81
2022/06/24 08:52:05;;;;;;;5.75;3.15;;;;;;;17.44;100.00;100569.84;4930416;29;20036;-80
2022/06/24 08:54:31;;;;;;;4.28;3.22;;;;;;;17.43;100.00;100560.13;4918487;28;20098;-80
2022/06/24 08:56:57;;;;;;;4.70;3.25;;;;;;;17.39;100.00;100553.31;4901131;29;20035;-80
2022/06/24 08:59:22;;;;;;;4.95;2.70;;;;;;;17.33;100.00;100553.81;4903215;29;20494;-80
2022/06/24 09:01:49;;;;;;;4.32;2.92;;;;;;;17.28;100.00;100547.97;4921324;28;20049;-81
2022/06/24 09:04:14;;;;;;;3.20;2.90;;;;;;;17.24;100.00;100561.59;4914054;29;20043;-82
2022/06/24 09:06:41;;;;;;;4.43;3.15;;;;;;;17.24;100.00;100563.41;4931134;29;20550;-81
2022/06/24 09:09:07;;;;;;;5.82;3.33;;;;;;;17.23;100.00;100565.22;4933566;29;20046;-82
2022/06/24 09:11:41;;;;;;;3.80;3.38;;;;;;;17.23;100.00;100575.06;4932933;29;20028;-82
2022/06/24 09:14:08;;;;;;;5.22;3.60;;;;;;;17.23;100.00;100577.75;4932290;29;20390;-77
2022/06/24 09:16:36;;;;;;;6.00;4.38;;;;;;;17.23;100.00;100578.59;4935535;29;20577;-82
2022/06/24 09:19:03;;;;;;;3.88;3.47;;;;;;;17.23;100.00;100580.44;4902443;29;20043;-82
2022/06/24 09:21:32;;;;;;;7.60;4.15;;;;;;;17.27;100.00;100581.03;4916325;29;20035;-81
2022/06/24 09:23:59;;;;;;;5.45;4.40;;;;;;;17.31;100.00;100593.19;4899418;29;20043;-83
2022/06/24 09:26:32;;;;;;;7.32;4.30;;;;;;;17.28;100.00;100586.28;4885244;29;20047;-82
2022/06/24 09:28:58;;;;;;;6.82;4.40;;;;;;;17.29;100.00;100593.31;4915330;29;20187;-81
2022/06/24 09:31:26;;;;;;;6.75;4.82;;;;;;;17.31;100.00;100593.19;4918489;29;20103;-83
2022/06/24 09:33:52;;;;;;;5.60;4.32;;;;;;;17.30;100.00;100587.00;4882755;29;20047;-83
2022/06/24 09:36:22;;;;;;;5.40;4.07;;;;;;;17.28;100.00;100588.09;4883841;29;20027;-83
2022/06/24 09:39:02;;;;;;;6.47;3.75;;;;;;;17.25;100.00;100597.19;4917572;29;20043;-83
2022/06/24 09:41:28;;;;;;;6.43;4.30;;;;;;;17.26;100.00;100606.94;4900577;29;20520;-83
2022/06/24 09:43:57;;;;;;;5.70;3.72;;;;;;;17.31;100.00;100606.56;4900560;29;20082;-82
2022/06/24 09:46:24;;;;;;;4.40;3.80;;;;;;;17.36;100.00;100615.09;4899998;29;20084;-82
2022/06/24 09:48:57;;;;;;;5.50;3.80;;;;;;;17.35;100.00;100608.91;4903753;29;20027;-82
2022/06/24 09:51:22;;;;;;;6.05;3.50;;;;;;;17.38;100.00;100605.13;4900793;29;20031;-87
2022/06/24 09:53:48;;;;;;;5.85;3.70;;;;;;;17.36;100.00;100601.72;4884521;29;20036;-83
2022/06/24 09:56:16;;;;;;;6.50;4.00;;;;;;;17.37;100.00;100593.56;4897465;29;20170;-83
2022/06/24 10:00:40;;;;;;;6.00;4.05;;;;;;;17.40;100.00;100597.84;4905859;29;20039;-83
2022/06/24 10:01:34;;;;;;;5.18;3.92;;;;;;;17.42;100.00;100603.91;4888410;29;20036;-83
2022/06/24 10:04:04;;;;;;;5.47;4.18;;;;;;;17.46;100.00;100607.19;4899138;29;20531;-83
2022/06/24 10:06:32;;;;;;;7.03;4.50;;;;;;;17.49;100.00;100601.63;4916068;29;20088;-83
2022/06/24 10:08:59;;;;;;;5.50;4.20;;;;;;;17.53;100.00;100603.06;4857597;29;20040;-83
2022/06/24 10:11:27;;;;;;;6.18;4.50;;;;;;;17.53;100.00;100602.22;4870625;28;20078;-82
2022/06/24 10:13:54;;;;;;;6.25;4.53;;;;;;;17.53;100.00;100602.22;4915565;29;20119;-83
2022/06/24 10:16:31;;;;;;;7.45;4.93;;;;;;;17.56;100.00;100612.69;4812385;29;20937;-81
2022/06/24 10:19:01;;;;;;;8.35;5.20;;;;;;;17.58;100.00;100610.72;4912569;29;20909;-85
2022/06/24 10:21:27;;;;;;;9.98;5.22;;;;;;;17.60;100.00;100619.50;4900230;29;20044;-80
2022/06/24 10:23:53;;;;;;;13.02;6.88;;;;;;;17.60;100.00;100614.97;4894731;29;20157;-82
2022/06/24 10:26:34;;;;;;;9.57;7.30;;;;;;;17.59;100.00;100613.28;4875398;29;20036;-91
2022/06/24 10:29:00;;;;;;;11.32;7.80;;;;;;;17.63;100.00;100614.75;4902537;29;20047;-78
2022/06/24 10:37:22;;;;;;;12.52;9.60;;;;;;;17.77;100.00;100610.13;4871718;29;20345;-82
2022/06/24 10:40:02;;;;;;;13.43;9.52;;;;;;;17.79;100.00;100616.22;4907995;29;20471;-79
2022/06/24 10:42:30;;;;;;;15.43;10.63;;;;;;;17.82;100.00;100612.44;4912637;29;20073;-82
2022/06/24 10:44:58;;;;;;;19.10;10.82;;;;;;;17.91;100.00;100612.56;4860537;29;20047;-80
2022/06/24 10:47:27;;;;;;;18.42;11.40;;;;;;;17.98;100.00;100610.22;4893757;29;20051;-79
2022/06/24 10:49:56;;;;;;;20.52;12.00;;;;;;;18.03;100.00;100605.34;4904982;29;20054;-78
2022/06/24 10:52:32;;;;;;;17.00;11.18;;;;;;;18.09;100.00;100605.88;4912664;29;20224;-79
2022/06/24 10:57:55;;;;;;;16.27;11.05;;;;;;;18.17;100.00;100611.44;4907288;29;20027;-78
2022/06/24 11:00:28;;;;;;;14.85;10.75;;;;;;;18.21;100.00;100620.94;4904375;29;20032;-77
2022/06/24 11:03:05;;;;;;;16.45;10.93;;;;;;;18.27;100.00;100622.25;4906083;29;20055;-79
2022/06/24 11:05:38;;;;;;;13.35;9.60;;;;;;;18.26;100.00;100608.00;4908012;29;20139;-80
2022/06/24 11:08:13;;;;;;;12.10;9.70;;;;;;;18.27;100.00;100616.91;4891260;29;20274;-80
2022/06/24 11:10:39;;;;;;;14.50;9.45;;;;;;;18.31;100.00;100619.19;4912317;29;20071;-78
2022/06/24 11:13:05;;;;;;;13.05;9.35;;;;;;;18.33;100.00;100616.41;4896919;29;20464;-79
2022/06/24 11:15:52;;;;;;;14.05;10.25;;;;;;;18.43;100.00;100621.84;4912198;29;20049;-79
2022/06/24 11:18:30;;;;;;;17.42;10.65;;;;;;;18.50;100.00;100627.53;4910886;29;20046;-79
2022/06/24 11:21:17;;;;;;;15.32;10.70;;;;;;;18.57;100.00;100624.25;4891492;29;20032;-81
2022/06/24 11:23:46;;;;;;;16.55;11.38;;;;;;;18.59;100.00;100627.63;4906042;29;20158;-81
2022/06/24 11:26:15;;;;;;;17.65;11.38;;;;;;;18.66;100.00;100627.13;4909099;29;20551;-81
2022/06/24 11:28:42;;;;;;;18.73;12.02;;;;;;;18.70;100.00;100626.72;4859899;29;20031;-82
2022/06/24 11:31:26;;;;;;;19.25;12.85;;;;;;;18.75;100.00;100622.81;4908579;29;20040;-81
2022/06/24 11:34:10;;;;;;;16.30;12.30;;;;;;;18.80;100.00;100629.50;4906073;29;20039;-80
2022/06/24 11:36:37;;;;;;;18.70;12.63;;;;;;;18.85;100.00;100626.44;4906477;29;20585;-82
2022/06/24 11:39:05;;;;;;;19.23;13.70;;;;;;;18.86;100.00;100634.34;4911842;29;20561;-81
2022/06/24 11:41:36;;;;;;;21.98;15.48;;;;;;;18.91;100.00;100635.81;4898962;29;20141;-78
2022/06/24 11:44:02;;;;;;;23.08;15.32;;;;;;;18.90;100.00;100629.56;4881725;29;20048;-82
2022/06/24 11:46:28;;;;;;;24.13;16.52;;;;;;;18.93;100.00;100628.47;4913652;29;20070;-82
2022/06/24 11:49:13;;;;;;;19.85;15.65;;;;;;;18.97;100.00;100629.94;4914606;29;20089;-84
2022/06/24 11:51:40;;;;;;;23.45;17.20;;;;;;;19.02;100.00;100627.75;4912092;29;20082;-84
2022/06/24 11:54:08;;;;;;;22.67;16.23;;;;;;;19.10;100.00;100624.38;4910050;29;20066;-83
2022/06/24 11:56:37;;;;;;;21.60;16.30;;;;;;;19.19;100.00;100628.13;4911879;29;20063;-82
2022/06/24 11:59:07;;;;;;;22.05;15.05;;;;;;;19.26;100.00;100634.66;4887654;29;20050;-84
2022/06/24 12:01:38;;;;;;;18.30;14.20;;;;;;;19.34;100.00;100626.78;4883752;29;20491;-83
2022/06/24 12:04:09;;;;;;;20.92;13.88;;;;;;;19.39;100.00;100619.19;4910248;29;20029;-83
2022/06/24 12:06:38;;;;;;;17.20;13.02;;;;;;;19.52;100.00;100621.66;4893309;29;20043;-82
2022/06/24 12:09:07;;;;;;;16.70;12.23;;;;;;;19.53;100.00;100625.19;4912627;29;20047;-82
2022/06/24 12:11:38;;;;;;;16.45;12.35;;;;;;;19.54;100.00;100627.75;4911334;29;20038;-77
2022/06/24 12:14:08;;;;;;;17.52;12.60;;;;;;;19.56;100.00;100619.59;4912663;29;20040;-82
2022/06/24 12:17:00;;;;;;;16.05;12.00;;;;;;;19.62;100.00;100624.38;4899050;29;20032;-82
2022/06/24 12:19:26;;;;;;;18.02;12.18;;;;;;;19.65;100.00;100626.81;4913735;29;20055;-86
2022/06/24 12:22:10;;;;;;;15.10;11.40;;;;;;;19.70;100.00;100628.22;4916539;29;20095;-85
2022/06/24 12:24:37;;;;;;;16.73;11.45;;;;;;;19.68;100.00;100629.22;4916965;29;20044;-82
2022/06/24 12:27:04;;;;;;;12.93;10.00;;;;;;;19.66;100.00;100625.81;4901150;29;20095;-82
2022/06/24 12:29:38;;;;;;;14.52;10.07;;;;;;;19.63;100.00;100619.88;4917865;29;20039;-83
2022/06/24 12:32:04;;;;;;;12.85;9.93;;;;;;;19.64;100.00;100627.81;4895526;29;20074;-81
2022/06/24 12:34:37;;;;;;;13.18;9.25;;;;;;;19.61;100.00;100627.22;4894964;29;20047;-82
2022/06/24 12:37:06;;;;;;;13.57;9.63;;;;;;;19.57;100.00;100626.66;4913521;29;20047;-83
2022/06/24 12:39:32;;;;;;;12.70;9.77;;;;;;;19.57;100.00;100629.34;4890528;29;20112;-84
2022/06/24 12:41:59;;;;;;;12.38;9.43;;;;;;;19.61;100.00;100633.44;4847866;29;20350;-85
2022/06/24 12:44:29;;;;;;;10.93;8.73;;;;;;;19.66;100.00;100635.72;4845451;29;20032;-84
2022/06/24 12:56:58;;;;;;;12.55;8.60;;;;;;;19.94;100.00;100618.00;5271967;23;20761;-86
2022/06/24 12:59:27;;;;;;;13.18;8.95;;;;;;;20.02;100.00;100616.50;4879798;29;20036;-85
2022/06/24 13:01:52;;;;;;;14.50;8.85;;;;;;;20.13;100.00;100620.91;4927541;29;21731;-87
2022/06/24 13:04:18;;;;;;;13.75;9.80;;;;;;;20.20;100.00;100614.88;4933154;29;20046;-88